sensor_id;sensor_type;location;lat;lon;timestamp;P1;durP1;ratioP1;P2;durP2;ratioP2
9409;SDS011;4744;52.576;13.568;2023-04-15T00:01:57;28.70;;;22.92;;
9409;SDS011;4744;52.576;13.568;2023-04-15T00:04:24;33.60;;;25.08;;
9409;SDS011;4744;52.576;13.568;2023-04-15T00:06:52;29.73;;;23.15;;
9409;SDS011;4744;52.576;13.568;2023-04-15T00:09:20;24.95;;;21.00;;
9409;SDS011;4744;52.576;13.568;2023-04-15T00:11:46;28.40;;;22.77;;
9409;SDS011;4744;52.576;13.568;2023-04-15T00:14:15;29.70;;;21.98;;
9409;SDS011;4744;52.576;13.568;2023-04-15T00:16:42;32.42;;;24.75;;
9409;SDS011;4744;52.576;13.568;2023-04-15T00:19:09;33.10;;;24.02;;
9409;SDS011;4744;52.576;13.568;2023-04-15T00:21:36;31.05;;;23.70;;
9409;SDS011;4744;52.576;13.568;2023-04-15T00:24:04;35.08;;;26.02;;
9409;SDS011;4744;52.576;13.568;2023-04-15T00:26:31;32.15;;;24.05;;
9409;SDS011;4744;52.576;13.568;2023-04-15T00:28:59;33.90;;;25.65;;
9409;SDS011;4744;52.576;13.568;2023-04-15T00:31:26;37.13;;;26.95;;
9409;SDS011;4744;52.576;13.568;2023-04-15T00:33:53;32.63;;;25.00;;
9409;SDS011;4744;52.576;13.568;2023-04-15T00:36:20;31.38;;;23.33;;
9409;SDS011;4744;52.576;13.568;2023-04-15T00:38:48;32.17;;;24.35;;
9409;SDS011;4744;52.576;13.568;2023-04-15T00:41:16;35.67;;;26.88;;
9409;SDS011;4744;52.576;13.568;2023-04-15T00:43:45;30.73;;;23.67;;
9409;SDS011;4744;52.576;13.568;2023-04-15T00:46:12;25.95;;;21.27;;
9409;SDS011;4744;52.576;13.568;2023-04-15T00:48:41;33.35;;;25.02;;
9409;SDS011;4744;52.576;13.568;2023-04-15T00:51:08;30.02;;;24.00;;
9409;SDS011;4744;52.576;13.568;2023-04-15T00:53:35;35.58;;;24.52;;
9409;SDS011;4744;52.576;13.568;2023-04-15T00:56:02;30.50;;;23.27;;
9409;SDS011;4744;52.576;13.568;2023-04-15T00:58:30;31.60;;;23.65;;
9409;SDS011;4744;52.576;13.568;2023-04-15T01:00:57;34.72;;;25.25;;
9409;SDS011;4744;52.576;13.568;2023-04-15T01:03:25;30.67;;;22.77;;
9409;SDS011;4744;52.576;13.568;2023-04-15T01:05:52;32.85;;;23.40;;
9409;SDS011;4744;52.576;13.568;2023-04-15T01:08:22;35.40;;;25.35;;
9409;SDS011;4744;52.576;13.568;2023-04-15T01:10:52;32.05;;;24.58;;
9409;SDS011;4744;52.576;13.568;2023-04-15T01:13:19;34.45;;;25.88;;
9409;SDS011;4744;52.576;13.568;2023-04-15T01:15:49;36.83;;;25.70;;
9409;SDS011;4744;52.576;13.568;2023-04-15T01:18:17;32.35;;;23.65;;
9409;SDS011;4744;52.576;13.568;2023-04-15T01:20:44;36.10;;;25.52;;
9409;SDS011;4744;52.576;13.568;2023-04-15T01:23:11;32.05;;;24.67;;
9409;SDS011;4744;52.576;13.568;2023-04-15T01:25:39;38.47;;;26.17;;
9409;SDS011;4744;52.576;13.568;2023-04-15T01:28:09;39.13;;;26.25;;
9409;SDS011;4744;52.576;13.568;2023-04-15T01:30:36;39.25;;;26.20;;
9409;SDS011;4744;52.576;13.568;2023-04-15T01:33:02;34.97;;;25.63;;
9409;SDS011;4744;52.576;13.568;2023-04-15T01:35:30;34.33;;;25.20;;
9409;SDS011;4744;52.576;13.568;2023-04-15T01:37:58;37.85;;;26.02;;
9409;SDS011;4744;52.576;13.568;2023-04-15T01:40:31;34.67;;;24.77;;
9409;SDS011;4744;52.576;13.568;2023-04-15T01:42:59;32.95;;;23.80;;
9409;SDS011;4744;52.576;13.568;2023-04-15T01:45:26;34.63;;;24.90;;
9409;SDS011;4744;52.576;13.568;2023-04-15T01:47:53;34.70;;;24.67;;
9409;SDS011;4744;52.576;13.568;2023-04-15T01:50:21;33.42;;;25.58;;
9409;SDS011;4744;52.576;13.568;2023-04-15T01:52:48;33.50;;;23.55;;
9409;SDS011;4744;52.576;13.568;2023-04-15T01:55:15;33.30;;;23.83;;
9409;SDS011;4744;52.576;13.568;2023-04-15T01:57:42;34.33;;;24.98;;
9409;SDS011;4744;52.576;13.568;2023-04-15T02:00:11;33.33;;;24.27;;
9409;SDS011;4744;52.576;13.568;2023-04-15T02:02:38;34.50;;;24.65;;
9409;SDS011;4744;52.576;13.568;2023-04-15T02:05:05;33.03;;;24.48;;
9409;SDS011;4744;52.576;13.568;2023-04-15T02:07:32;35.15;;;24.52;;
9409;SDS011;4744;52.576;13.568;2023-04-15T02:09:59;35.17;;;25.60;;
9409;SDS011;4744;52.576;13.568;2023-04-15T02:12:26;32.05;;;22.40;;
9409;SDS011;4744;52.576;13.568;2023-04-15T02:14:53;33.95;;;24.52;;
9409;SDS011;4744;52.576;13.568;2023-04-15T02:17:22;32.08;;;23.63;;
9409;SDS011;4744;52.576;13.568;2023-04-15T02:19:49;28.60;;;21.38;;
9409;SDS011;4744;52.576;13.568;2023-04-15T02:22:16;29.17;;;21.48;;
9409;SDS011;4744;52.576;13.568;2023-04-15T02:24:43;29.40;;;20.95;;
9409;SDS011;4744;52.576;13.568;2023-04-15T02:27:14;30.10;;;21.83;;
9409;SDS011;4744;52.576;13.568;2023-04-15T02:29:42;31.55;;;22.55;;
9409;SDS011;4744;52.576;13.568;2023-04-15T02:32:09;30.48;;;22.42;;
9409;SDS011;4744;52.576;13.568;2023-04-15T02:34:38;31.77;;;22.80;;
9409;SDS011;4744;52.576;13.568;2023-04-15T02:37:07;26.58;;;21.70;;
9409;SDS011;4744;52.576;13.568;2023-04-15T02:39:34;29.23;;;21.48;;
9409;SDS011;4744;52.576;13.568;2023-04-15T02:42:01;30.83;;;22.00;;
9409;SDS011;4744;52.576;13.568;2023-04-15T02:44:29;29.77;;;22.20;;
9409;SDS011;4744;52.576;13.568;2023-04-15T02:46:56;29.80;;;21.17;;
9409;SDS011;4744;52.576;13.568;2023-04-15T02:49:23;28.38;;;21.55;;
9409;SDS011;4744;52.576;13.568;2023-04-15T02:51:52;29.95;;;22.40;;
9409;SDS011;4744;52.576;13.568;2023-04-15T02:54:19;27.55;;;21.20;;
9409;SDS011;4744;52.576;13.568;2023-04-15T02:56:48;33.33;;;24.02;;
9409;SDS011;4744;52.576;13.568;2023-04-15T02:59:15;32.13;;;23.63;;
9409;SDS011;4744;52.576;13.568;2023-04-15T03:01:42;28.30;;;22.13;;
9409;SDS011;4744;52.576;13.568;2023-04-15T03:04:08;27.60;;;20.35;;
9409;SDS011;4744;52.576;13.568;2023-04-15T03:06:35;28.48;;;21.88;;
9409;SDS011;4744;52.576;13.568;2023-04-15T03:09:04;28.20;;;22.25;;
9409;SDS011;4744;52.576;13.568;2023-04-15T03:11:31;32.35;;;22.58;;
9409;SDS011;4744;52.576;13.568;2023-04-15T03:13:59;28.80;;;22.40;;
9409;SDS011;4744;52.576;13.568;2023-04-15T03:16:26;30.25;;;22.65;;
9409;SDS011;4744;52.576;13.568;2023-04-15T03:18:53;26.75;;;20.80;;
9409;SDS011;4744;52.576;13.568;2023-04-15T03:21:19;29.52;;;22.60;;
9409;SDS011;4744;52.576;13.568;2023-04-15T03:23:47;26.55;;;20.88;;
9409;SDS011;4744;52.576;13.568;2023-04-15T03:26:24;27.90;;;21.55;;
9409;SDS011;4744;52.576;13.568;2023-04-15T03:28:52;24.15;;;19.98;;
9409;SDS011;4744;52.576;13.568;2023-04-15T03:31:19;25.35;;;21.30;;
9409;SDS011;4744;52.576;13.568;2023-04-15T03:33:46;25.10;;;20.35;;
9409;SDS011;4744;52.576;13.568;2023-04-15T03:36:13;30.05;;;21.52;;
9409;SDS011;4744;52.576;13.568;2023-04-15T03:38:40;35.33;;;26.25;;
9409;SDS011;4744;52.576;13.568;2023-04-15T03:41:07;32.20;;;24.58;;
9409;SDS011;4744;52.576;13.568;2023-04-15T03:43:36;52.35;;;35.70;;
9409;SDS011;4744;52.576;13.568;2023-04-15T03:46:02;51.47;;;34.45;;
9409;SDS011;4744;52.576;13.568;2023-04-15T03:48:30;47.25;;;32.03;;
9409;SDS011;4744;52.576;13.568;2023-04-15T03:50:57;60.80;;;37.15;;
9409;SDS011;4744;52.576;13.568;2023-04-15T03:53:23;53.72;;;33.95;;
9409;SDS011;4744;52.576;13.568;2023-04-15T03:55:50;35.80;;;25.70;;
9409;SDS011;4744;52.576;13.568;2023-04-15T03:58:17;40.95;;;27.42;;
9409;SDS011;4744;52.576;13.568;2023-04-15T04:00:46;28.15;;;22.58;;
9409;SDS011;4744;52.576;13.568;2023-04-15T04:03:12;27.10;;;21.67;;
9409;SDS011;4744;52.576;13.568;2023-04-15T04:05:39;22.30;;;19.20;;
9409;SDS011;4744;52.576;13.568;2023-04-15T04:08:08;22.75;;;18.52;;
9409;SDS011;4744;52.576;13.568;2023-04-15T04:10:37;21.95;;;19.23;;
9409;SDS011;4744;52.576;13.568;2023-04-15T04:13:04;20.90;;;18.35;;
9409;SDS011;4744;52.576;13.568;2023-04-15T04:15:32;21.00;;;17.20;;
9409;SDS011;4744;52.576;13.568;2023-04-15T04:18:00;21.40;;;18.20;;
9409;SDS011;4744;52.576;13.568;2023-04-15T04:20:27;23.10;;;17.48;;
9409;SDS011;4744;52.576;13.568;2023-04-15T04:22:55;20.13;;;16.42;;
9409;SDS011;4744;52.576;13.568;2023-04-15T04:25:22;22.80;;;18.85;;
9409;SDS011;4744;52.576;13.568;2023-04-15T04:27:49;19.92;;;16.65;;
9409;SDS011;4744;52.576;13.568;2023-04-15T04:30:16;19.02;;;16.55;;
9409;SDS011;4744;52.576;13.568;2023-04-15T04:32:43;19.15;;;17.10;;
9409;SDS011;4744;52.576;13.568;2023-04-15T04:35:12;22.70;;;17.40;;
9409;SDS011;4744;52.576;13.568;2023-04-15T04:37:39;21.73;;;17.83;;
9409;SDS011;4744;52.576;13.568;2023-04-15T04:40:06;20.17;;;17.48;;
9409;SDS011;4744;52.576;13.568;2023-04-15T04:42:34;18.38;;;16.38;;
9409;SDS011;4744;52.576;13.568;2023-04-15T04:45:01;22.13;;;17.52;;
9409;SDS011;4744;52.576;13.568;2023-04-15T04:47:28;20.85;;;17.55;;
9409;SDS011;4744;52.576;13.568;2023-04-15T04:49:55;18.40;;;16.40;;
9409;SDS011;4744;52.576;13.568;2023-04-15T04:52:23;20.90;;;17.17;;
9409;SDS011;4744;52.576;13.568;2023-04-15T04:54:50;19.73;;;17.05;;
9409;SDS011;4744;52.576;13.568;2023-04-15T04:57:17;19.85;;;16.25;;
9409;SDS011;4744;52.576;13.568;2023-04-15T04:59:44;22.02;;;17.20;;
9409;SDS011;4744;52.576;13.568;2023-04-15T05:02:11;23.05;;;17.33;;
9409;SDS011;4744;52.576;13.568;2023-04-15T05:04:38;18.08;;;15.68;;
9409;SDS011;4744;52.576;13.568;2023-04-15T05:07:05;19.17;;;16.33;;
9409;SDS011;4744;52.576;13.568;2023-04-15T05:09:34;18.60;;;16.60;;
9409;SDS011;4744;52.576;13.568;2023-04-15T05:12:01;18.95;;;16.27;;
9409;SDS011;4744;52.576;13.568;2023-04-15T05:14:28;18.25;;;15.55;;
9409;SDS011;4744;52.576;13.568;2023-04-15T05:16:56;18.92;;;15.77;;
9409;SDS011;4744;52.576;13.568;2023-04-15T05:19:23;17.23;;;15.45;;
9409;SDS011;4744;52.576;13.568;2023-04-15T05:21:50;16.95;;;15.20;;
9409;SDS011;4744;52.576;13.568;2023-04-15T05:24:17;17.75;;;15.65;;
9409;SDS011;4744;52.576;13.568;2023-04-15T05:26:45;17.55;;;15.65;;
9409;SDS011;4744;52.576;13.568;2023-04-15T05:29:12;18.63;;;15.93;;
9409;SDS011;4744;52.576;13.568;2023-04-15T05:31:39;17.05;;;15.23;;
9409;SDS011;4744;52.576;13.568;2023-04-15T05:34:06;18.00;;;15.00;;
9409;SDS011;4744;52.576;13.568;2023-04-15T05:36:33;17.08;;;14.95;;
9409;SDS011;4744;52.576;13.568;2023-04-15T05:39:00;18.25;;;14.73;;
9409;SDS011;4744;52.576;13.568;2023-04-15T05:41:27;16.85;;;14.85;;
9409;SDS011;4744;52.576;13.568;2023-04-15T05:43:55;15.32;;;13.80;;
9409;SDS011;4744;52.576;13.568;2023-04-15T05:46:22;15.43;;;13.82;;
9409;SDS011;4744;52.576;13.568;2023-04-15T05:48:49;17.42;;;14.30;;
9409;SDS011;4744;52.576;13.568;2023-04-15T05:51:16;16.00;;;14.32;;
9409;SDS011;4744;52.576;13.568;2023-04-15T05:53:43;15.82;;;14.15;;
9409;SDS011;4744;52.576;13.568;2023-04-15T05:56:10;16.10;;;14.38;;
9409;SDS011;4744;52.576;13.568;2023-04-15T05:58:37;15.02;;;13.10;;
9409;SDS011;4744;52.576;13.568;2023-04-15T06:01:05;14.45;;;13.05;;
9409;SDS011;4744;52.576;13.568;2023-04-15T06:03:32;15.52;;;13.88;;
9409;SDS011;4744;52.576;13.568;2023-04-15T06:05:59;15.43;;;13.77;;
9409;SDS011;4744;52.576;13.568;2023-04-15T06:08:26;14.32;;;12.85;;
9409;SDS011;4744;52.576;13.568;2023-04-15T06:10:53;14.50;;;13.07;;
9409;SDS011;4744;52.576;13.568;2023-04-15T06:13:20;14.30;;;12.80;;
9409;SDS011;4744;52.576;13.568;2023-04-15T06:15:47;13.90;;;12.15;;
9409;SDS011;4744;52.576;13.568;2023-04-15T06:18:15;13.88;;;11.95;;
9409;SDS011;4744;52.576;13.568;2023-04-15T06:20:42;12.88;;;11.18;;
9409;SDS011;4744;52.576;13.568;2023-04-15T06:23:09;13.10;;;11.82;;
9409;SDS011;4744;52.576;13.568;2023-04-15T06:25:36;12.38;;;11.18;;
9409;SDS011;4744;52.576;13.568;2023-04-15T06:28:03;13.05;;;11.63;;
9409;SDS011;4744;52.576;13.568;2023-04-15T06:30:30;12.90;;;11.60;;
9409;SDS011;4744;52.576;13.568;2023-04-15T06:32:57;12.30;;;11.05;;
9409;SDS011;4744;52.576;13.568;2023-04-15T06:35:25;12.70;;;11.48;;
9409;SDS011;4744;52.576;13.568;2023-04-15T06:37:52;11.55;;;10.45;;
9409;SDS011;4744;52.576;13.568;2023-04-15T06:40:19;10.93;;;9.98;;
9409;SDS011;4744;52.576;13.568;2023-04-15T06:42:46;12.07;;;10.82;;
9409;SDS011;4744;52.576;13.568;2023-04-15T06:45:13;11.70;;;10.60;;
9409;SDS011;4744;52.576;13.568;2023-04-15T06:47:41;11.77;;;10.68;;
9409;SDS011;4744;52.576;13.568;2023-04-15T06:50:08;11.38;;;10.30;;
9409;SDS011;4744;52.576;13.568;2023-04-15T06:52:37;10.70;;;9.57;;
9409;SDS011;4744;52.576;13.568;2023-04-15T06:55:04;11.18;;;9.82;;
9409;SDS011;4744;52.576;13.568;2023-04-15T06:57:32;11.02;;;9.93;;
9409;SDS011;4744;52.576;13.568;2023-04-15T06:59:59;10.48;;;9.43;;
9409;SDS011;4744;52.576;13.568;2023-04-15T07:02:25;10.25;;;9.35;;
9409;SDS011;4744;52.576;13.568;2023-04-15T07:04:52;10.10;;;9.20;;
9409;SDS011;4744;52.576;13.568;2023-04-15T07:07:19;10.18;;;9.18;;
9409;SDS011;4744;52.576;13.568;2023-04-15T07:09:47;10.88;;;9.43;;
9409;SDS011;4744;52.576;13.568;2023-04-15T07:12:14;10.60;;;9.50;;
9409;SDS011;4744;52.576;13.568;2023-04-15T07:14:42;10.48;;;9.48;;
9409;SDS011;4744;52.576;13.568;2023-04-15T07:17:09;10.70;;;9.60;;
9409;SDS011;4744;52.576;13.568;2023-04-15T07:19:36;11.20;;;10.10;;
9409;SDS011;4744;52.576;13.568;2023-04-15T07:22:03;11.55;;;10.45;;
9409;SDS011;4744;52.576;13.568;2023-04-15T07:24:30;10.73;;;9.65;;
9409;SDS011;4744;52.576;13.568;2023-04-15T07:26:58;11.18;;;10.18;;
9409;SDS011;4744;52.576;13.568;2023-04-15T07:29:25;10.82;;;9.80;;
9409;SDS011;4744;52.576;13.568;2023-04-15T07:31:52;13.48;;;10.18;;
9409;SDS011;4744;52.576;13.568;2023-04-15T07:34:21;10.95;;;9.85;;
9409;SDS011;4744;52.576;13.568;2023-04-15T07:36:48;10.27;;;9.27;;
9409;SDS011;4744;52.576;13.568;2023-04-15T07:39:16;13.65;;;10.68;;
9409;SDS011;4744;52.576;13.568;2023-04-15T07:41:43;10.73;;;9.70;;
9409;SDS011;4744;52.576;13.568;2023-04-15T07:44:11;11.65;;;10.27;;
9409;SDS011;4744;52.576;13.568;2023-04-15T07:46:38;10.80;;;9.80;;
9409;SDS011;4744;52.576;13.568;2023-04-15T07:49:05;11.85;;;10.52;;
9409;SDS011;4744;52.576;13.568;2023-04-15T07:51:32;10.55;;;9.55;;
9409;SDS011;4744;52.576;13.568;2023-04-15T07:53:59;11.32;;;10.23;;
9409;SDS011;4744;52.576;13.568;2023-04-15T07:56:27;12.65;;;11.35;;
9409;SDS011;4744;52.576;13.568;2023-04-15T07:58:54;11.55;;;10.48;;
9409;SDS011;4744;52.576;13.568;2023-04-15T08:01:22;11.55;;;10.35;;
9409;SDS011;4744;52.576;13.568;2023-04-15T08:03:49;10.40;;;9.40;;
9409;SDS011;4744;52.576;13.568;2023-04-15T08:06:16;12.48;;;11.02;;
9409;SDS011;4744;52.576;13.568;2023-04-15T08:08:43;12.25;;;11.10;;
9409;SDS011;4744;52.576;13.568;2023-04-15T08:11:11;11.27;;;10.23;;
9409;SDS011;4744;52.576;13.568;2023-04-15T08:13:38;12.43;;;11.23;;
9409;SDS011;4744;52.576;13.568;2023-04-15T08:16:16;11.65;;;10.55;;
9409;SDS011;4744;52.576;13.568;2023-04-15T08:18:45;12.90;;;10.95;;
9409;SDS011;4744;52.576;13.568;2023-04-15T08:21:12;12.02;;;10.70;;
9409;SDS011;4744;52.576;13.568;2023-04-15T08:23:40;12.10;;;10.90;;
9409;SDS011;4744;52.576;13.568;2023-04-15T08:26:07;12.32;;;11.20;;
9409;SDS011;4744;52.576;13.568;2023-04-15T08:28:34;11.73;;;10.73;;
9409;SDS011;4744;52.576;13.568;2023-04-15T08:31:02;13.00;;;11.63;;
9409;SDS011;4744;52.576;13.568;2023-04-15T08:33:29;12.25;;;11.02;;
9409;SDS011;4744;52.576;13.568;2023-04-15T08:35:58;12.77;;;11.57;;
9409;SDS011;4744;52.576;13.568;2023-04-15T08:38:25;12.85;;;11.73;;
9409;SDS011;4744;52.576;13.568;2023-04-15T08:40:52;12.30;;;11.10;;
9409;SDS011;4744;52.576;13.568;2023-04-15T08:43:20;12.40;;;11.30;;
9409;SDS011;4744;52.576;13.568;2023-04-15T08:45:50;14.07;;;11.82;;
9409;SDS011;4744;52.576;13.568;2023-04-15T08:48:18;12.65;;;11.18;;
9409;SDS011;4744;52.576;13.568;2023-04-15T08:50:46;13.48;;;12.23;;
9409;SDS011;4744;52.576;13.568;2023-04-15T08:53:15;13.73;;;12.43;;
9409;SDS011;4744;52.576;13.568;2023-04-15T08:55:42;11.30;;;10.30;;
9409;SDS011;4744;52.576;13.568;2023-04-15T08:58:10;12.43;;;11.13;;
9409;SDS011;4744;52.576;13.568;2023-04-15T09:00:38;12.32;;;11.18;;
9409;SDS011;4744;52.576;13.568;2023-04-15T09:03:05;10.80;;;9.85;;
9409;SDS011;4744;52.576;13.568;2023-04-15T09:05:35;11.52;;;10.40;;
9409;SDS011;4744;52.576;13.568;2023-04-15T09:08:03;11.23;;;10.23;;
9409;SDS011;4744;52.576;13.568;2023-04-15T09:10:32;11.10;;;10.00;;
9409;SDS011;4744;52.576;13.568;2023-04-15T09:12:59;11.80;;;10.52;;
9409;SDS011;4744;52.576;13.568;2023-04-15T09:15:27;11.23;;;10.23;;
9409;SDS011;4744;52.576;13.568;2023-04-15T09:17:55;11.93;;;10.82;;
9409;SDS011;4744;52.576;13.568;2023-04-15T09:20:22;11.63;;;9.88;;
9409;SDS011;4744;52.576;13.568;2023-04-15T09:22:49;10.52;;;9.63;;
9409;SDS011;4744;52.576;13.568;2023-04-15T09:25:26;11.18;;;10.18;;
9409;SDS011;4744;52.576;13.568;2023-04-15T09:27:56;10.73;;;9.65;;
9409;SDS011;4744;52.576;13.568;2023-04-15T09:30:25;10.38;;;9.48;;
9409;SDS011;4744;52.576;13.568;2023-04-15T09:32:54;10.55;;;9.65;;
9409;SDS011;4744;52.576;13.568;2023-04-15T09:35:23;10.70;;;9.70;;
9409;SDS011;4744;52.576;13.568;2023-04-15T09:37:51;10.90;;;9.90;;
9409;SDS011;4744;52.576;13.568;2023-04-15T09:40:32;10.68;;;9.77;;
9409;SDS011;4744;52.576;13.568;2023-04-15T09:43:01;10.70;;;9.75;;
9409;SDS011;4744;52.576;13.568;2023-04-15T09:45:29;10.15;;;9.25;;
9409;SDS011;4744;52.576;13.568;2023-04-15T09:47:56;10.27;;;9.38;;
9409;SDS011;4744;52.576;13.568;2023-04-15T09:50:25;9.93;;;9.00;;
9409;SDS011;4744;52.576;13.568;2023-04-15T09:52:53;10.68;;;9.60;;
9409;SDS011;4744;52.576;13.568;2023-04-15T09:55:20;11.30;;;10.20;;
9409;SDS011;4744;52.576;13.568;2023-04-15T09:57:47;9.35;;;8.50;;
9409;SDS011;4744;52.576;13.568;2023-04-15T10:00:16;10.45;;;9.55;;
9409;SDS011;4744;52.576;13.568;2023-04-15T10:02:44;10.20;;;9.30;;
9409;SDS011;4744;52.576;13.568;2023-04-15T10:05:14;10.88;;;9.88;;
9409;SDS011;4744;52.576;13.568;2023-04-15T10:07:41;9.63;;;8.80;;
9409;SDS011;4744;52.576;13.568;2023-04-15T10:10:10;9.95;;;9.07;;
9409;SDS011;4744;52.576;13.568;2023-04-15T10:12:38;10.50;;;9.60;;
9409;SDS011;4744;52.576;13.568;2023-04-15T10:15:06;10.55;;;9.57;;
9409;SDS011;4744;52.576;13.568;2023-04-15T10:17:42;11.35;;;10.23;;
9409;SDS011;4744;52.576;13.568;2023-04-15T10:20:10;10.63;;;9.63;;
9409;SDS011;4744;52.576;13.568;2023-04-15T10:22:39;10.88;;;9.98;;
9409;SDS011;4744;52.576;13.568;2023-04-15T10:25:07;11.23;;;10.10;;
9409;SDS011;4744;52.576;13.568;2023-04-15T10:27:36;11.75;;;10.65;;
9409;SDS011;4744;52.576;13.568;2023-04-15T10:30:05;11.75;;;10.65;;
9409;SDS011;4744;52.576;13.568;2023-04-15T10:32:33;11.95;;;10.75;;
9409;SDS011;4744;52.576;13.568;2023-04-15T10:35:02;11.35;;;10.35;;
9409;SDS011;4744;52.576;13.568;2023-04-15T10:37:32;11.13;;;10.23;;
9409;SDS011;4744;52.576;13.568;2023-04-15T10:40:00;11.80;;;10.70;;
9409;SDS011;4744;52.576;13.568;2023-04-15T10:42:53;11.75;;;10.70;;
9409;SDS011;4744;52.576;13.568;2023-04-15T10:45:20;11.43;;;10.43;;
9409;SDS011;4744;52.576;13.568;2023-04-15T10:47:50;11.80;;;10.60;;
9409;SDS011;4744;52.576;13.568;2023-04-15T10:50:20;11.65;;;10.60;;
9409;SDS011;4744;52.576;13.568;2023-04-15T10:52:49;11.43;;;10.38;;
9409;SDS011;4744;52.576;13.568;2023-04-15T10:55:18;11.80;;;10.80;;
9409;SDS011;4744;52.576;13.568;2023-04-15T10:57:46;11.73;;;10.57;;
9409;SDS011;4744;52.576;13.568;2023-04-15T11:00:17;11.68;;;10.68;;
9409;SDS011;4744;52.576;13.568;2023-04-15T11:02:47;12.55;;;11.30;;
9409;SDS011;4744;52.576;13.568;2023-04-15T11:05:18;12.13;;;11.02;;
9409;SDS011;4744;52.576;13.568;2023-04-15T11:07:48;11.65;;;10.55;;
9409;SDS011;4744;52.576;13.568;2023-04-15T11:13:26;10.88;;;9.95;;
9409;SDS011;4744;52.576;13.568;2023-04-15T11:15:58;11.10;;;10.10;;
9409;SDS011;4744;52.576;13.568;2023-04-15T11:18:30;11.57;;;10.38;;
9409;SDS011;4744;52.576;13.568;2023-04-15T11:21:00;10.98;;;9.98;;
9409;SDS011;4744;52.576;13.568;2023-04-15T11:23:30;11.55;;;10.50;;
9409;SDS011;4744;52.576;13.568;2023-04-15T11:25:59;11.05;;;10.10;;
9409;SDS011;4744;52.576;13.568;2023-04-15T11:30:56;10.98;;;9.98;;
9409;SDS011;4744;52.576;13.568;2023-04-15T11:33:23;10.45;;;9.45;;
9409;SDS011;4744;52.576;13.568;2023-04-15T11:35:51;10.38;;;9.48;;
9409;SDS011;4744;52.576;13.568;2023-04-15T11:38:21;10.98;;;9.88;;
9409;SDS011;4744;52.576;13.568;2023-04-15T11:40:49;10.18;;;9.13;;
9409;SDS011;4744;52.576;13.568;2023-04-15T11:43:17;9.85;;;8.98;;
9409;SDS011;4744;52.576;13.568;2023-04-15T11:45:49;10.48;;;9.52;;
9409;SDS011;4744;52.576;13.568;2023-04-15T11:48:18;10.95;;;9.95;;
9409;SDS011;4744;52.576;13.568;2023-04-15T11:50:51;10.05;;;9.02;;
9409;SDS011;4744;52.576;13.568;2023-04-15T11:53:20;9.80;;;8.90;;
9409;SDS011;4744;52.576;13.568;2023-04-15T11:55:49;9.88;;;8.90;;
9409;SDS011;4744;52.576;13.568;2023-04-15T11:58:17;10.10;;;9.20;;
9409;SDS011;4744;52.576;13.568;2023-04-15T12:00:46;9.80;;;9.00;;
9409;SDS011;4744;52.576;13.568;2023-04-15T12:03:15;9.23;;;8.43;;
9409;SDS011;4744;52.576;13.568;2023-04-15T12:11:44;10.43;;;9.43;;
9409;SDS011;4744;52.576;13.568;2023-04-15T12:14:15;10.75;;;9.38;;
9409;SDS011;4744;52.576;13.568;2023-04-15T12:16:47;9.32;;;8.48;;
9409;SDS011;4744;52.576;13.568;2023-04-15T12:19:16;10.02;;;9.13;;
9409;SDS011;4744;52.576;13.568;2023-04-15T12:21:45;9.43;;;8.60;;
9409;SDS011;4744;52.576;13.568;2023-04-15T12:24:13;10.25;;;9.25;;
9409;SDS011;4744;52.576;13.568;2023-04-15T12:26:44;9.63;;;8.82;;
9409;SDS011;4744;52.576;13.568;2023-04-15T12:29:13;9.27;;;8.52;;
9409;SDS011;4744;52.576;13.568;2023-04-15T12:31:48;8.50;;;7.80;;
9409;SDS011;4744;52.576;13.568;2023-04-15T12:34:16;9.23;;;8.40;;
9409;SDS011;4744;52.576;13.568;2023-04-15T12:36:45;9.68;;;8.88;;
9409;SDS011;4744;52.576;13.568;2023-04-15T12:39:12;9.50;;;8.60;;
9409;SDS011;4744;52.576;13.568;2023-04-15T12:41:38;8.65;;;7.95;;
9409;SDS011;4744;52.576;13.568;2023-04-15T12:44:07;8.38;;;7.68;;
9409;SDS011;4744;52.576;13.568;2023-04-15T12:46:34;9.10;;;8.30;;
9409;SDS011;4744;52.576;13.568;2023-04-15T12:49:01;8.88;;;8.07;;
9409;SDS011;4744;52.576;13.568;2023-04-15T12:51:28;8.05;;;7.35;;
9409;SDS011;4744;52.576;13.568;2023-04-15T12:53:56;9.38;;;7.70;;
9409;SDS011;4744;52.576;13.568;2023-04-15T12:56:23;7.93;;;7.22;;
9409;SDS011;4744;52.576;13.568;2023-04-15T12:58:50;8.52;;;7.82;;
9409;SDS011;4744;52.576;13.568;2023-04-15T13:01:19;8.27;;;7.57;;
9409;SDS011;4744;52.576;13.568;2023-04-15T13:03:46;7.43;;;6.82;;
9409;SDS011;4744;52.576;13.568;2023-04-15T13:06:14;6.88;;;6.28;;
9409;SDS011;4744;52.576;13.568;2023-04-15T13:08:41;7.35;;;6.75;;
9409;SDS011;4744;52.576;13.568;2023-04-15T13:11:08;7.05;;;6.45;;
9409;SDS011;4744;52.576;13.568;2023-04-15T13:13:35;7.07;;;6.57;;
9409;SDS011;4744;52.576;13.568;2023-04-15T13:16:02;6.10;;;5.60;;
9409;SDS011;4744;52.576;13.568;2023-04-15T13:18:31;5.85;;;5.45;;
9409;SDS011;4744;52.576;13.568;2023-04-15T13:20:59;6.10;;;5.60;;
9409;SDS011;4744;52.576;13.568;2023-04-15T13:23:26;5.75;;;5.18;;
9409;SDS011;4744;52.576;13.568;2023-04-15T13:25:53;5.25;;;4.85;;
9409;SDS011;4744;52.576;13.568;2023-04-15T13:28:20;5.30;;;4.70;;
9409;SDS011;4744;52.576;13.568;2023-04-15T13:30:46;5.35;;;4.95;;
9409;SDS011;4744;52.576;13.568;2023-04-15T13:33:15;5.20;;;4.80;;
9409;SDS011;4744;52.576;13.568;2023-04-15T13:35:43;5.65;;;5.18;;
9409;SDS011;4744;52.576;13.568;2023-04-15T13:38:10;5.07;;;4.68;;
9409;SDS011;4744;52.576;13.568;2023-04-15T13:40:37;5.38;;;4.97;;
9409;SDS011;4744;52.576;13.568;2023-04-15T13:43:04;5.30;;;4.95;;
9409;SDS011;4744;52.576;13.568;2023-04-15T13:45:31;4.97;;;4.68;;
9409;SDS011;4744;52.576;13.568;2023-04-15T13:47:58;5.28;;;4.75;;
9409;SDS011;4744;52.576;13.568;2023-04-15T13:50:25;5.22;;;4.72;;
9409;SDS011;4744;52.576;13.568;2023-04-15T13:52:53;4.75;;;4.45;;
9409;SDS011;4744;52.576;13.568;2023-04-15T13:55:20;5.20;;;4.80;;
9409;SDS011;4744;52.576;13.568;2023-04-15T13:57:47;5.78;;;5.30;;
9409;SDS011;4744;52.576;13.568;2023-04-15T14:00:15;5.03;;;4.70;;
9409;SDS011;4744;52.576;13.568;2023-04-15T14:02:42;5.80;;;5.30;;
9409;SDS011;4744;52.576;13.568;2023-04-15T14:05:09;5.30;;;4.90;;
9409;SDS011;4744;52.576;13.568;2023-04-15T14:07:36;5.10;;;4.70;;
9409;SDS011;4744;52.576;13.568;2023-04-15T14:10:05;5.32;;;4.93;;
9409;SDS011;4744;52.576;13.568;2023-04-15T14:12:32;5.30;;;4.78;;
9409;SDS011;4744;52.576;13.568;2023-04-15T14:14:59;5.82;;;5.35;;
9409;SDS011;4744;52.576;13.568;2023-04-15T14:17:26;5.55;;;5.13;;
9409;SDS011;4744;52.576;13.568;2023-04-15T14:19:53;5.68;;;5.28;;
9409;SDS011;4744;52.576;13.568;2023-04-15T14:22:20;5.15;;;4.80;;
9409;SDS011;4744;52.576;13.568;2023-04-15T14:24:47;6.30;;;5.80;;
9409;SDS011;4744;52.576;13.568;2023-04-15T14:27:18;6.72;;;5.93;;
9409;SDS011;4744;52.576;13.568;2023-04-15T14:29:45;5.60;;;5.10;;
9409;SDS011;4744;52.576;13.568;2023-04-15T14:32:12;4.95;;;4.55;;
9409;SDS011;4744;52.576;13.568;2023-04-15T14:34:39;5.15;;;4.75;;
9409;SDS011;4744;52.576;13.568;2023-04-15T14:37:06;4.90;;;4.50;;
9409;SDS011;4744;52.576;13.568;2023-04-15T14:39:33;5.00;;;4.60;;
9409;SDS011;4744;52.576;13.568;2023-04-15T14:41:59;5.15;;;4.75;;
9409;SDS011;4744;52.576;13.568;2023-04-15T14:44:28;5.30;;;4.90;;
9409;SDS011;4744;52.576;13.568;2023-04-15T14:46:55;6.28;;;5.78;;
9409;SDS011;4744;52.576;13.568;2023-04-15T14:49:22;7.30;;;6.60;;
9409;SDS011;4744;52.576;13.568;2023-04-15T14:51:49;7.78;;;7.07;;
9409;SDS011;4744;52.576;13.568;2023-04-15T14:54:16;7.32;;;6.70;;
9409;SDS011;4744;52.576;13.568;2023-04-15T14:56:42;5.90;;;5.40;;
9409;SDS011;4744;52.576;13.568;2023-04-15T14:59:09;6.47;;;5.88;;